PAL896 RPLL-RCTP
Flight info
| Callsign | PAL896 |
|---|---|
| Flight time | N/A |
| Altitude | 35000 |
| Route | ALPAS2R ALPAS M646 POTIB Q14 TNN TNN1A |
| Aircraft | A321/M-SDE3FGHIRWY/LB1 |
Departure
| Time | N/A |
|---|---|
| Airport | Ninoy Aquino International Airport (RPLL) |
Arrival
| Time | 2026-05-07 06:18 |
|---|---|
| Airport | Taiwan Taoyuan International Airport (RCTP) |
| Time | Latitude | Longitude | Altitude | Speed | Heading |
|---|---|---|---|---|---|
| 2026-05-07 05:39 | 21.41291 | 120.65283 | 34925 ft | 429 kts | 344° |
| 2026-05-07 05:39 | 21.47122 | 120.63790 | 34927 ft | 429 kts | 344° |
| 2026-05-07 05:40 | 21.52905 | 120.62308 | 34928 ft | 429 kts | 344° |
| 2026-05-07 05:40 | 21.58716 | 120.60816 | 34927 ft | 428 kts | 344° |
| 2026-05-07 05:41 | 21.64509 | 120.59326 | 34924 ft | 428 kts | 344° |
| 2026-05-07 05:41 | 21.70329 | 120.57826 | 34924 ft | 428 kts | 344° |
| 2026-05-07 05:42 | 21.76124 | 120.56333 | 34923 ft | 428 kts | 344° |
| 2026-05-07 05:42 | 21.81922 | 120.54839 | 34925 ft | 428 kts | 344° |
| 2026-05-07 05:43 | 21.87714 | 120.53346 | 34925 ft | 427 kts | 344° |
| 2026-05-07 05:43 | 21.93506 | 120.51850 | 34923 ft | 428 kts | 344° |
| 2026-05-07 05:44 | 21.99319 | 120.50350 | 34920 ft | 428 kts | 344° |
| 2026-05-07 05:44 | 22.05109 | 120.48856 | 34920 ft | 428 kts | 344° |
| 2026-05-07 05:45 | 22.10899 | 120.47360 | 34925 ft | 427 kts | 344° |
| 2026-05-07 05:45 | 22.16715 | 120.45855 | 34924 ft | 427 kts | 344° |
| 2026-05-07 05:46 | 22.22501 | 120.44357 | 34924 ft | 427 kts | 344° |
| 2026-05-07 05:46 | 22.28278 | 120.42860 | 34925 ft | 427 kts | 344° |
| 2026-05-07 05:47 | 22.34064 | 120.41359 | 34930 ft | 427 kts | 344° |
| 2026-05-07 05:47 | 22.39864 | 120.39853 | 34934 ft | 427 kts | 344° |
| 2026-05-07 05:48 | 22.45643 | 120.38351 | 34929 ft | 427 kts | 344° |
| 2026-05-07 05:48 | 22.51450 | 120.36841 | 34930 ft | 427 kts | 344° |
| 2026-05-07 05:49 | 22.57222 | 120.35340 | 34930 ft | 426 kts | 344° |
| 2026-05-07 05:49 | 22.62985 | 120.33839 | 34929 ft | 426 kts | 344° |
| 2026-05-07 05:50 | 22.68776 | 120.32330 | 34933 ft | 426 kts | 344° |
| 2026-05-07 05:50 | 22.74567 | 120.30820 | 34932 ft | 426 kts | 344° |
| 2026-05-07 05:51 | 22.80303 | 120.29321 | 34935 ft | 426 kts | 344° |
| 2026-05-07 05:51 | 22.86113 | 120.27801 | 34939 ft | 425 kts | 344° |
| 2026-05-07 05:52 | 22.91862 | 120.26296 | 34935 ft | 426 kts | 343° |
| 2026-05-07 05:52 | 22.97628 | 120.24786 | 34936 ft | 426 kts | 344° |
| 2026-05-07 05:53 | 23.03392 | 120.23274 | 34936 ft | 425 kts | 344° |
| 2026-05-07 05:53 | 23.09206 | 120.22041 | 34939 ft | 427 kts | 349° |
| 2026-05-07 05:54 | 23.15156 | 120.21456 | 34937 ft | 429 kts | 354° |
| 2026-05-07 05:54 | 23.21162 | 120.21555 | 34931 ft | 432 kts | 0° |
| 2026-05-07 05:55 | 23.27145 | 120.22199 | 34931 ft | 433 kts | 2° |
| 2026-05-07 05:55 | 23.33152 | 120.22921 | 34927 ft | 433 kts | 2° |
| 2026-05-07 05:56 | 23.39131 | 120.23641 | 34929 ft | 432 kts | 2° |
| 2026-05-07 05:56 | 23.45147 | 120.24361 | 34931 ft | 433 kts | 2° |
| 2026-05-07 05:57 | 23.51120 | 120.25079 | 34929 ft | 433 kts | 2° |
| 2026-05-07 05:57 | 23.57158 | 120.25805 | 34930 ft | 433 kts | 2° |
| 2026-05-07 05:58 | 23.63126 | 120.26522 | 34926 ft | 433 kts | 2° |
| 2026-05-07 05:58 | 23.69119 | 120.27395 | 34099 ft | 437 kts | 6° |
| 2026-05-07 05:58 | 23.72131 | 120.28087 | 32850 ft | 450 kts | 9° |
| 2026-05-07 05:59 | 23.75148 | 120.28987 | 31738 ft | 461 kts | 13° |
| 2026-05-07 05:59 | 23.78246 | 120.30034 | 30761 ft | 466 kts | 14° |
| 2026-05-07 05:59 | 23.81350 | 120.31109 | 29873 ft | 469 kts | 14° |
| 2026-05-07 05:59 | 23.84440 | 120.32188 | 29236 ft | 465 kts | 14° |
| 2026-05-07 06:00 | 23.87512 | 120.33260 | 28678 ft | 460 kts | 15° |
| 2026-05-07 06:00 | 23.90521 | 120.34309 | 28080 ft | 456 kts | 14° |
| 2026-05-07 06:00 | 23.93541 | 120.35362 | 27455 ft | 453 kts | 14° |
| 2026-05-07 06:00 | 23.96534 | 120.36402 | 26837 ft | 450 kts | 14° |
| 2026-05-07 06:01 | 23.99505 | 120.37434 | 26233 ft | 447 kts | 14° |
| 2026-05-07 06:01 | 24.02461 | 120.38462 | 25638 ft | 443 kts | 14° |
| 2026-05-07 06:01 | 24.05400 | 120.39482 | 25037 ft | 440 kts | 14° |
| 2026-05-07 06:01 | 24.08283 | 120.40483 | 24443 ft | 437 kts | 14° |
| 2026-05-07 06:02 | 24.11166 | 120.41486 | 23863 ft | 433 kts | 14° |
| 2026-05-07 06:02 | 24.14041 | 120.42487 | 23270 ft | 431 kts | 14° |
| 2026-05-07 06:02 | 24.16884 | 120.43475 | 22662 ft | 429 kts | 14° |
| 2026-05-07 06:02 | 24.19721 | 120.44463 | 22099 ft | 426 kts | 14° |
| 2026-05-07 06:03 | 24.22548 | 120.45447 | 21550 ft | 423 kts | 14° |
| 2026-05-07 06:03 | 24.25344 | 120.46420 | 21008 ft | 421 kts | 14° |
| 2026-05-07 06:03 | 24.28131 | 120.47390 | 20480 ft | 418 kts | 14° |
| 2026-05-07 06:03 | 24.30891 | 120.48352 | 19938 ft | 416 kts | 14° |
| 2026-05-07 06:04 | 24.33650 | 120.49315 | 19421 ft | 414 kts | 14° |
| 2026-05-07 06:04 | 24.36350 | 120.50257 | 18916 ft | 411 kts | 15° |
| 2026-05-07 06:04 | 24.38197 | 120.50902 | 18589 ft | 409 kts | 15° |
| 2026-05-07 06:05 | 24.43968 | 120.52920 | 17527 ft | 404 kts | 15° |
| 2026-05-07 06:05 | 24.46639 | 120.53854 | 17029 ft | 402 kts | 15° |
| 2026-05-07 06:05 | 24.49307 | 120.54789 | 16592 ft | 398 kts | 15° |
| 2026-05-07 06:05 | 24.51946 | 120.55714 | 16125 ft | 395 kts | 15° |
| 2026-05-07 06:06 | 24.54543 | 120.56626 | 15678 ft | 391 kts | 15° |
| 2026-05-07 06:06 | 24.57108 | 120.57526 | 15292 ft | 387 kts | 15° |
| 2026-05-07 06:06 | 24.59692 | 120.58433 | 14846 ft | 384 kts | 14° |
| 2026-05-07 06:06 | 24.62204 | 120.59313 | 14390 ft | 381 kts | 14° |
| 2026-05-07 06:07 | 24.64726 | 120.60197 | 13948 ft | 377 kts | 14° |
| 2026-05-07 06:07 | 24.67162 | 120.61285 | 13504 ft | 377 kts | 25° |
| 2026-05-07 06:07 | 24.69315 | 120.62904 | 13070 ft | 377 kts | 37° |
| 2026-05-07 06:07 | 24.71276 | 120.64786 | 12705 ft | 370 kts | 39° |
| 2026-05-07 06:08 | 24.73134 | 120.66644 | 12235 ft | 355 kts | 40° |
| 2026-05-07 06:08 | 24.74937 | 120.68452 | 11686 ft | 342 kts | 40° |
| 2026-05-07 06:08 | 24.76663 | 120.70174 | 11038 ft | 333 kts | 40° |
| 2026-05-07 06:08 | 24.78363 | 120.71859 | 10491 ft | 325 kts | 40° |
| 2026-05-07 06:09 | 24.80024 | 120.73502 | 9989 ft | 315 kts | 40° |
| 2026-05-07 06:09 | 24.81633 | 120.75090 | 9394 ft | 309 kts | 41° |
| 2026-05-07 06:09 | 24.83208 | 120.76644 | 8800 ft | 303 kts | 41° |
| 2026-05-07 06:09 | 24.84773 | 120.78187 | 8182 ft | 300 kts | 41° |
| 2026-05-07 06:10 | 24.86303 | 120.79697 | 7607 ft | 298 kts | 41° |
| 2026-05-07 06:10 | 24.87857 | 120.81230 | 7075 ft | 300 kts | 41° |
| 2026-05-07 06:10 | 24.89420 | 120.82770 | 6586 ft | 303 kts | 41° |
| 2026-05-07 06:10 | 24.90981 | 120.84351 | 6226 ft | 302 kts | 47° |
| 2026-05-07 06:11 | 24.91999 | 120.86296 | 5920 ft | 297 kts | 78° |
| 2026-05-07 06:11 | 24.92108 | 120.88557 | 5508 ft | 295 kts | 96° |
| 2026-05-07 06:11 | 24.91886 | 120.90775 | 5193 ft | 290 kts | 99° |
| 2026-05-07 06:11 | 24.91650 | 120.92971 | 4763 ft | 286 kts | 98° |
| 2026-05-07 06:12 | 24.91469 | 120.95132 | 4389 ft | 281 kts | 96° |
| 2026-05-07 06:12 | 24.91331 | 120.97260 | 4067 ft | 280 kts | 95° |
| 2026-05-07 06:12 | 24.91215 | 120.99377 | 3974 ft | 270 kts | 95° |
| 2026-05-07 06:12 | 24.91115 | 121.01377 | 3966 ft | 256 kts | 95° |
| 2026-05-07 06:13 | 24.91191 | 121.03288 | 3934 ft | 245 kts | 75° |
| 2026-05-07 06:13 | 24.92005 | 121.04909 | 3717 ft | 244 kts | 49° |
| 2026-05-07 06:13 | 24.93183 | 121.06230 | 3530 ft | 241 kts | 44° |
| 2026-05-07 06:13 | 24.94364 | 121.07523 | 3350 ft | 237 kts | 46° |
| 2026-05-07 06:14 | 24.95465 | 121.08827 | 3228 ft | 228 kts | 48° |
| 2026-05-07 06:14 | 24.96505 | 121.10130 | 2934 ft | 226 kts | 49° |
| 2026-05-07 06:14 | 24.97505 | 121.11410 | 2610 ft | 214 kts | 49° |
| 2026-05-07 06:14 | 24.98448 | 121.12623 | 2347 ft | 200 kts | 49° |
| 2026-05-07 06:15 | 24.99339 | 121.13764 | 2064 ft | 188 kts | 49° |
| 2026-05-07 06:15 | 25.00161 | 121.14813 | 1806 ft | 175 kts | 48° |
| 2026-05-07 06:15 | 25.00921 | 121.15781 | 1576 ft | 161 kts | 48° |
| 2026-05-07 06:15 | 25.01624 | 121.16678 | 1372 ft | 149 kts | 47° |
| 2026-05-07 06:16 | 25.02289 | 121.17524 | 1205 ft | 146 kts | 47° |
| 2026-05-07 06:16 | 25.02958 | 121.18376 | 1043 ft | 144 kts | 47° |
| 2026-05-07 06:16 | 25.03607 | 121.19212 | 870 ft | 143 kts | 48° |
| 2026-05-07 06:16 | 25.04252 | 121.20031 | 692 ft | 142 kts | 46° |
| 2026-05-07 06:17 | 25.04902 | 121.20849 | 518 ft | 141 kts | 47° |
| 2026-05-07 06:17 | 25.05549 | 121.21660 | 327 ft | 139 kts | 47° |
| 2026-05-07 06:17 | 25.06182 | 121.22478 | 150 ft | 139 kts | 48° |
| 2026-05-07 06:17 | 25.06788 | 121.23257 | 117 ft | 121 kts | 47° |
| 2026-05-07 06:18 | 25.07233 | 121.23806 | 117 ft | 71 kts | 48° |
| 2026-05-07 06:18 | 25.07460 | 121.24082 | 117 ft | 35 kts | 47° |
| 2026-05-07 06:18 | 25.07648 | 121.24206 | 117 ft | 21 kts | 18° |
| 2026-05-07 06:18 | 25.07751 | 121.24198 | 117 ft | 11 kts | 326° |
| 2026-05-07 06:19 | 25.07794 | 121.24196 | 117 ft | 5 kts | 320° |
| 2026-05-07 06:19 | 25.07820 | 121.24168 | 117 ft | 5 kts | 319° |
| 2026-05-07 06:19 | 25.07851 | 121.24138 | 117 ft | 6 kts | 319° |
| 2026-05-07 06:19 | 25.07862 | 121.24128 | 117 ft | 0 kts | 319° |